sensor_id;sensor_type;location;lat;lon;timestamp;P1;durP1;ratioP1;P2;durP2;ratioP2
40076;SDS011;25777;47.824;18.982;2023-10-13T00:00:37;14.77;;;6.82;;
40076;SDS011;25777;47.824;18.982;2023-10-13T00:03:07;12.60;;;7.45;;
40076;SDS011;25777;47.824;18.982;2023-10-13T00:08:07;15.95;;;7.20;;
40076;SDS011;25777;47.824;18.982;2023-10-13T00:10:34;20.20;;;8.20;;
40076;SDS011;25777;47.824;18.982;2023-10-13T00:13:00;16.92;;;7.30;;
40076;SDS011;25777;47.824;18.982;2023-10-13T00:15:41;14.65;;;7.13;;
40076;SDS011;25777;47.824;18.982;2023-10-13T00:18:27;13.00;;;7.43;;
40076;SDS011;25777;47.824;18.982;2023-10-13T00:21:21;16.77;;;7.63;;
40076;SDS011;25777;47.824;18.982;2023-10-13T00:23:56;16.52;;;7.20;;
40076;SDS011;25777;47.824;18.982;2023-10-13T00:26:25;13.82;;;8.15;;
40076;SDS011;25777;47.824;18.982;2023-10-13T00:28:56;13.00;;;7.60;;
40076;SDS011;25777;47.824;18.982;2023-10-13T00:31:35;14.00;;;7.43;;
40076;SDS011;25777;47.824;18.982;2023-10-13T00:34:05;13.40;;;7.03;;
40076;SDS011;25777;47.824;18.982;2023-10-13T00:36:40;15.07;;;8.18;;
40076;SDS011;25777;47.824;18.982;2023-10-13T00:39:25;12.93;;;7.85;;
40076;SDS011;25777;47.824;18.982;2023-10-13T00:41:54;13.27;;;7.10;;
40076;SDS011;25777;47.824;18.982;2023-10-13T00:44:31;12.35;;;7.00;;
40076;SDS011;25777;47.824;18.982;2023-10-13T00:47:06;12.05;;;7.05;;
40076;SDS011;25777;47.824;18.982;2023-10-13T00:49:35;14.60;;;7.32;;
40076;SDS011;25777;47.824;18.982;2023-10-13T00:52:08;18.17;;;7.57;;
40076;SDS011;25777;47.824;18.982;2023-10-13T00:54:36;12.55;;;7.07;;
40076;SDS011;25777;47.824;18.982;2023-10-13T00:57:03;13.02;;;7.38;;
40076;SDS011;25777;47.824;18.982;2023-10-13T00:59:32;14.50;;;7.68;;
40076;SDS011;25777;47.824;18.982;2023-10-13T01:02:01;16.30;;;7.88;;
40076;SDS011;25777;47.824;18.982;2023-10-13T01:04:47;13.48;;;7.78;;
40076;SDS011;25777;47.824;18.982;2023-10-13T01:07:14;14.23;;;7.28;;
40076;SDS011;25777;47.824;18.982;2023-10-13T01:09:41;15.15;;;8.13;;
40076;SDS011;25777;47.824;18.982;2023-10-13T01:12:07;14.45;;;7.35;;
40076;SDS011;25777;47.824;18.982;2023-10-13T01:14:34;16.40;;;8.82;;
40076;SDS011;25777;47.824;18.982;2023-10-13T01:17:01;14.45;;;7.53;;
40076;SDS011;25777;47.824;18.982;2023-10-13T01:19:29;13.32;;;7.60;;
40076;SDS011;25777;47.824;18.982;2023-10-13T01:21:55;14.75;;;8.02;;
40076;SDS011;25777;47.824;18.982;2023-10-13T01:24:29;15.57;;;7.53;;
40076;SDS011;25777;47.824;18.982;2023-10-13T01:27:05;19.00;;;8.00;;
40076;SDS011;25777;47.824;18.982;2023-10-13T01:29:48;13.77;;;7.63;;
40076;SDS011;25777;47.824;18.982;2023-10-13T01:32:17;16.45;;;8.05;;
40076;SDS011;25777;47.824;18.982;2023-10-13T01:34:44;13.82;;;7.65;;
40076;SDS011;25777;47.824;18.982;2023-10-13T01:37:12;13.95;;;7.75;;
40076;SDS011;25777;47.824;18.982;2023-10-13T01:39:38;17.92;;;7.65;;
40076;SDS011;25777;47.824;18.982;2023-10-13T01:42:03;16.23;;;7.38;;
40076;SDS011;25777;47.824;18.982;2023-10-13T01:44:31;19.58;;;8.40;;
40076;SDS011;25777;47.824;18.982;2023-10-13T01:46:58;17.35;;;7.63;;
40076;SDS011;25777;47.824;18.982;2023-10-13T01:49:34;14.20;;;7.32;;
40076;SDS011;25777;47.824;18.982;2023-10-13T01:52:18;15.82;;;7.80;;
40076;SDS011;25777;47.824;18.982;2023-10-13T01:54:47;16.23;;;7.18;;
40076;SDS011;25777;47.824;18.982;2023-10-13T01:57:15;16.95;;;7.80;;
40076;SDS011;25777;47.824;18.982;2023-10-13T01:59:44;16.70;;;7.22;;
40076;SDS011;25777;47.824;18.982;2023-10-13T02:02:13;15.23;;;7.43;;
40076;SDS011;25777;47.824;18.982;2023-10-13T02:04:42;16.95;;;7.63;;
40076;SDS011;25777;47.824;18.982;2023-10-13T02:07:17;14.25;;;7.20;;
40076;SDS011;25777;47.824;18.982;2023-10-13T02:09:45;12.48;;;6.97;;
40076;SDS011;25777;47.824;18.982;2023-10-13T02:12:12;14.80;;;6.80;;
40076;SDS011;25777;47.824;18.982;2023-10-13T02:14:40;12.30;;;6.78;;
40076;SDS011;25777;47.824;18.982;2023-10-13T02:17:07;12.27;;;7.32;;
40076;SDS011;25777;47.824;18.982;2023-10-13T02:19:42;14.90;;;7.57;;
40076;SDS011;25777;47.824;18.982;2023-10-13T02:22:12;14.90;;;7.22;;
40076;SDS011;25777;47.824;18.982;2023-10-13T02:24:50;14.85;;;7.28;;
40076;SDS011;25777;47.824;18.982;2023-10-13T02:27:17;12.82;;;6.68;;
40076;SDS011;25777;47.824;18.982;2023-10-13T02:29:49;13.52;;;6.97;;
40076;SDS011;25777;47.824;18.982;2023-10-13T02:32:15;13.25;;;7.13;;
40076;SDS011;25777;47.824;18.982;2023-10-13T02:34:44;13.73;;;7.05;;
40076;SDS011;25777;47.824;18.982;2023-10-13T02:37:11;11.75;;;6.65;;
40076;SDS011;25777;47.824;18.982;2023-10-13T02:39:38;13.23;;;7.18;;
40076;SDS011;25777;47.824;18.982;2023-10-13T02:42:07;15.88;;;6.90;;
40076;SDS011;25777;47.824;18.982;2023-10-13T02:44:34;13.95;;;6.72;;
40076;SDS011;25777;47.824;18.982;2023-10-13T02:47:01;13.13;;;6.72;;
40076;SDS011;25777;47.824;18.982;2023-10-13T02:49:39;17.35;;;6.90;;
40076;SDS011;25777;47.824;18.982;2023-10-13T02:52:08;15.02;;;6.78;;
40076;SDS011;25777;47.824;18.982;2023-10-13T02:54:38;13.85;;;7.05;;
40076;SDS011;25777;47.824;18.982;2023-10-13T02:57:18;12.07;;;6.85;;
40076;SDS011;25777;47.824;18.982;2023-10-13T02:59:44;16.85;;;7.07;;
40076;SDS011;25777;47.824;18.982;2023-10-13T03:02:20;14.68;;;7.50;;
40076;SDS011;25777;47.824;18.982;2023-10-13T03:04:51;16.08;;;7.82;;
40076;SDS011;25777;47.824;18.982;2023-10-13T03:07:17;14.35;;;7.78;;
40076;SDS011;25777;47.824;18.982;2023-10-13T03:09:49;15.98;;;8.13;;
40076;SDS011;25777;47.824;18.982;2023-10-13T03:12:19;13.43;;;7.13;;
40076;SDS011;25777;47.824;18.982;2023-10-13T03:14:45;17.40;;;7.70;;
40076;SDS011;25777;47.824;18.982;2023-10-13T03:17:14;13.25;;;7.30;;
40076;SDS011;25777;47.824;18.982;2023-10-13T03:19:45;13.77;;;6.95;;
40076;SDS011;25777;47.824;18.982;2023-10-13T03:22:15;12.55;;;7.07;;
40076;SDS011;25777;47.824;18.982;2023-10-13T03:24:41;16.90;;;7.75;;
40076;SDS011;25777;47.824;18.982;2023-10-13T03:27:18;14.98;;;8.07;;
40076;SDS011;25777;47.824;18.982;2023-10-13T03:30:04;12.73;;;6.50;;
40076;SDS011;25777;47.824;18.982;2023-10-13T03:32:38;13.40;;;7.15;;
40076;SDS011;25777;47.824;18.982;2023-10-13T03:35:09;13.05;;;7.13;;
40076;SDS011;25777;47.824;18.982;2023-10-13T03:37:50;13.18;;;6.78;;
40076;SDS011;25777;47.824;18.982;2023-10-13T03:40:19;14.05;;;7.15;;
40076;SDS011;25777;47.824;18.982;2023-10-13T03:42:49;14.30;;;7.20;;
40076;SDS011;25777;47.824;18.982;2023-10-13T03:45:34;12.48;;;6.55;;
40076;SDS011;25777;47.824;18.982;2023-10-13T03:48:08;12.07;;;6.47;;
40076;SDS011;25777;47.824;18.982;2023-10-13T03:53:27;14.13;;;7.00;;
40076;SDS011;25777;47.824;18.982;2023-10-13T03:56:02;12.02;;;7.13;;
40076;SDS011;25777;47.824;18.982;2023-10-13T03:58:40;13.65;;;6.93;;
40076;SDS011;25777;47.824;18.982;2023-10-13T04:01:13;13.15;;;6.82;;
40076;SDS011;25777;47.824;18.982;2023-10-13T04:03:42;12.55;;;7.05;;
40076;SDS011;25777;47.824;18.982;2023-10-13T04:06:30;11.10;;;6.63;;
40076;SDS011;25777;47.824;18.982;2023-10-13T04:09:14;15.15;;;7.38;;
40076;SDS011;25777;47.824;18.982;2023-10-13T04:12:00;16.90;;;8.55;;
40076;SDS011;25777;47.824;18.982;2023-10-13T04:14:28;15.43;;;7.47;;
40076;SDS011;25777;47.824;18.982;2023-10-13T04:17:13;15.18;;;8.15;;
40076;SDS011;25777;47.824;18.982;2023-10-13T04:19:42;13.88;;;7.63;;
40076;SDS011;25777;47.824;18.982;2023-10-13T04:22:27;14.63;;;8.25;;
40076;SDS011;25777;47.824;18.982;2023-10-13T04:25:14;14.88;;;8.20;;
40076;SDS011;25777;47.824;18.982;2023-10-13T04:28:01;13.98;;;7.75;;
40076;SDS011;25777;47.824;18.982;2023-10-13T04:33:26;14.48;;;7.53;;
40076;SDS011;25777;47.824;18.982;2023-10-13T04:36:17;13.73;;;7.70;;
40076;SDS011;25777;47.824;18.982;2023-10-13T04:38:53;14.00;;;7.93;;
40076;SDS011;25777;47.824;18.982;2023-10-13T04:44:08;14.55;;;7.72;;
40076;SDS011;25777;47.824;18.982;2023-10-13T04:46:53;15.95;;;7.57;;
40076;SDS011;25777;47.824;18.982;2023-10-13T04:49:33;15.57;;;7.38;;
40076;SDS011;25777;47.824;18.982;2023-10-13T04:52:11;13.90;;;7.15;;
40076;SDS011;25777;47.824;18.982;2023-10-13T04:54:41;16.27;;;7.45;;
40076;SDS011;25777;47.824;18.982;2023-10-13T04:57:18;14.95;;;7.70;;
40076;SDS011;25777;47.824;18.982;2023-10-13T05:00:03;16.30;;;7.93;;
40076;SDS011;25777;47.824;18.982;2023-10-13T05:02:37;13.07;;;7.35;;
40076;SDS011;25777;47.824;18.982;2023-10-13T05:05:13;15.00;;;7.43;;
40076;SDS011;25777;47.824;18.982;2023-10-13T05:07:42;13.98;;;7.68;;
40076;SDS011;25777;47.824;18.982;2023-10-13T05:10:28;18.75;;;8.25;;
40076;SDS011;25777;47.824;18.982;2023-10-13T05:13:13;15.40;;;8.10;;
40076;SDS011;25777;47.824;18.982;2023-10-13T05:15:58;12.88;;;7.63;;
40076;SDS011;25777;47.824;18.982;2023-10-13T05:18:42;15.20;;;7.95;;
40076;SDS011;25777;47.824;18.982;2023-10-13T05:21:27;16.33;;;8.00;;
40076;SDS011;25777;47.824;18.982;2023-10-13T05:24:12;16.13;;;7.68;;
40076;SDS011;25777;47.824;18.982;2023-10-13T05:26:56;17.73;;;9.10;;
40076;SDS011;25777;47.824;18.982;2023-10-13T05:29:40;15.15;;;7.82;;
40076;SDS011;25777;47.824;18.982;2023-10-13T05:32:25;14.30;;;7.50;;
40076;SDS011;25777;47.824;18.982;2023-10-13T05:35:10;14.68;;;8.30;;
40076;SDS011;25777;47.824;18.982;2023-10-13T05:37:54;15.60;;;8.23;;
40076;SDS011;25777;47.824;18.982;2023-10-13T05:40:38;13.50;;;7.40;;
40076;SDS011;25777;47.824;18.982;2023-10-13T05:43:23;18.75;;;7.28;;
40076;SDS011;25777;47.824;18.982;2023-10-13T05:46:07;16.23;;;8.20;;
40076;SDS011;25777;47.824;18.982;2023-10-13T05:49:01;16.15;;;7.70;;
40076;SDS011;25777;47.824;18.982;2023-10-13T05:51:37;15.90;;;7.75;;
40076;SDS011;25777;47.824;18.982;2023-10-13T05:54:11;13.43;;;7.47;;
40076;SDS011;25777;47.824;18.982;2023-10-13T05:56:59;14.57;;;7.75;;
40076;SDS011;25777;47.824;18.982;2023-10-13T05:59:42;12.73;;;7.82;;
40076;SDS011;25777;47.824;18.982;2023-10-13T06:02:26;15.38;;;8.93;;
40076;SDS011;25777;47.824;18.982;2023-10-13T06:05:11;14.30;;;7.35;;
40076;SDS011;25777;47.824;18.982;2023-10-13T06:07:57;13.07;;;7.78;;
40076;SDS011;25777;47.824;18.982;2023-10-13T06:10:42;16.58;;;8.02;;
40076;SDS011;25777;47.824;18.982;2023-10-13T06:13:27;15.00;;;7.63;;
40076;SDS011;25777;47.824;18.982;2023-10-13T06:16:13;15.43;;;8.02;;
40076;SDS011;25777;47.824;18.982;2023-10-13T06:19:00;13.48;;;7.90;;
40076;SDS011;25777;47.824;18.982;2023-10-13T06:21:45;17.90;;;8.10;;
40076;SDS011;25777;47.824;18.982;2023-10-13T06:24:29;16.33;;;8.02;;
40076;SDS011;25777;47.824;18.982;2023-10-13T06:27:17;13.45;;;7.82;;
40076;SDS011;25777;47.824;18.982;2023-10-13T06:30:01;14.05;;;7.65;;
40076;SDS011;25777;47.824;18.982;2023-10-13T06:32:29;15.75;;;7.88;;
40076;SDS011;25777;47.824;18.982;2023-10-13T06:34:56;14.68;;;7.95;;
40076;SDS011;25777;47.824;18.982;2023-10-13T06:37:43;16.20;;;8.68;;
40076;SDS011;25777;47.824;18.982;2023-10-13T06:40:10;17.15;;;8.23;;
40076;SDS011;25777;47.824;18.982;2023-10-13T06:42:49;15.40;;;8.18;;
40076;SDS011;25777;47.824;18.982;2023-10-13T06:45:15;12.43;;;7.70;;
40076;SDS011;25777;47.824;18.982;2023-10-13T06:47:42;18.55;;;7.97;;
40076;SDS011;25777;47.824;18.982;2023-10-13T06:50:09;15.15;;;8.32;;
40076;SDS011;25777;47.824;18.982;2023-10-13T06:52:44;13.68;;;8.32;;
40076;SDS011;25777;47.824;18.982;2023-10-13T06:55:14;17.70;;;8.38;;
40076;SDS011;25777;47.824;18.982;2023-10-13T06:57:48;16.05;;;8.57;;
40076;SDS011;25777;47.824;18.982;2023-10-13T07:00:16;16.50;;;8.35;;
40076;SDS011;25777;47.824;18.982;2023-10-13T07:02:52;13.63;;;7.60;;
40076;SDS011;25777;47.824;18.982;2023-10-13T07:05:18;18.33;;;8.75;;
40076;SDS011;25777;47.824;18.982;2023-10-13T07:07:44;15.50;;;8.93;;
40076;SDS011;25777;47.824;18.982;2023-10-13T07:10:11;16.27;;;9.18;;
40076;SDS011;25777;47.824;18.982;2023-10-13T07:12:41;16.50;;;9.27;;
40076;SDS011;25777;47.824;18.982;2023-10-13T07:15:10;17.15;;;9.60;;
40076;SDS011;25777;47.824;18.982;2023-10-13T07:17:39;19.02;;;9.38;;
40076;SDS011;25777;47.824;18.982;2023-10-13T07:20:05;15.77;;;9.25;;
40076;SDS011;25777;47.824;18.982;2023-10-13T07:22:54;14.32;;;8.27;;
40076;SDS011;25777;47.824;18.982;2023-10-13T07:25:40;15.32;;;9.00;;
40076;SDS011;25777;47.824;18.982;2023-10-13T07:28:06;19.40;;;10.43;;
40076;SDS011;25777;47.824;18.982;2023-10-13T07:30:36;17.83;;;10.63;;
40076;SDS011;25777;47.824;18.982;2023-10-13T07:33:25;18.25;;;10.25;;
40076;SDS011;25777;47.824;18.982;2023-10-13T07:36:01;19.85;;;10.88;;
40076;SDS011;25777;47.824;18.982;2023-10-13T07:38:48;17.67;;;10.23;;
40076;SDS011;25777;47.824;18.982;2023-10-13T07:41:17;20.70;;;10.85;;
40076;SDS011;25777;47.824;18.982;2023-10-13T07:43:47;20.13;;;10.88;;
40076;SDS011;25777;47.824;18.982;2023-10-13T07:46:14;21.45;;;11.02;;
40076;SDS011;25777;47.824;18.982;2023-10-13T07:48:40;20.30;;;11.73;;
40076;SDS011;25777;47.824;18.982;2023-10-13T07:51:09;19.50;;;10.75;;
40076;SDS011;25777;47.824;18.982;2023-10-13T07:53:47;21.65;;;11.48;;
40076;SDS011;25777;47.824;18.982;2023-10-13T07:56:18;16.77;;;10.27;;
40076;SDS011;25777;47.824;18.982;2023-10-13T07:58:44;17.92;;;11.32;;
40076;SDS011;25777;47.824;18.982;2023-10-13T08:01:25;19.75;;;9.90;;
40076;SDS011;25777;47.824;18.982;2023-10-13T08:03:52;22.02;;;10.40;;
40076;SDS011;25777;47.824;18.982;2023-10-13T08:06:30;17.75;;;9.50;;
40076;SDS011;25777;47.824;18.982;2023-10-13T08:08:56;18.65;;;10.00;;
40076;SDS011;25777;47.824;18.982;2023-10-13T08:11:35;18.58;;;10.00;;
40076;SDS011;25777;47.824;18.982;2023-10-13T08:14:03;17.85;;;9.95;;
40076;SDS011;25777;47.824;18.982;2023-10-13T08:16:48;16.58;;;9.55;;
40076;SDS011;25777;47.824;18.982;2023-10-13T08:19:21;17.55;;;9.85;;
40076;SDS011;25777;47.824;18.982;2023-10-13T08:22:04;17.48;;;10.13;;
40076;SDS011;25777;47.824;18.982;2023-10-13T08:24:43;18.00;;;9.73;;
40076;SDS011;25777;47.824;18.982;2023-10-13T08:27:10;20.85;;;9.80;;
40076;SDS011;25777;47.824;18.982;2023-10-13T08:29:54;16.30;;;9.15;;
40076;SDS011;25777;47.824;18.982;2023-10-13T08:32:26;14.98;;;8.68;;
40076;SDS011;25777;47.824;18.982;2023-10-13T08:34:56;16.05;;;8.48;;
40076;SDS011;25777;47.824;18.982;2023-10-13T08:37:25;17.60;;;8.67;;
40076;SDS011;25777;47.824;18.982;2023-10-13T08:39:52;15.82;;;8.85;;
40076;SDS011;25777;47.824;18.982;2023-10-13T08:42:29;16.05;;;9.43;;
40076;SDS011;25777;47.824;18.982;2023-10-13T08:47:49;19.33;;;9.80;;
40076;SDS011;25777;47.824;18.982;2023-10-13T08:50:34;15.85;;;9.05;;
40076;SDS011;25777;47.824;18.982;2023-10-13T08:56:07;21.15;;;10.75;;
40076;SDS011;25777;47.824;18.982;2023-10-13T08:58:45;20.88;;;9.60;;
40076;SDS011;25777;47.824;18.982;2023-10-13T09:01:35;19.23;;;11.30;;
40076;SDS011;25777;47.824;18.982;2023-10-13T09:04:05;22.27;;;10.38;;
40076;SDS011;25777;47.824;18.982;2023-10-13T09:06:44;18.38;;;10.48;;
40076;SDS011;25777;47.824;18.982;2023-10-13T09:09:15;20.73;;;11.07;;
40076;SDS011;25777;47.824;18.982;2023-10-13T09:12:17;24.10;;;10.45;;
40076;SDS011;25777;47.824;18.982;2023-10-13T09:14:51;19.15;;;9.18;;
40076;SDS011;25777;47.824;18.982;2023-10-13T09:17:30;20.67;;;9.30;;
40076;SDS011;25777;47.824;18.982;2023-10-13T09:22:51;19.98;;;8.80;;
40076;SDS011;25777;47.824;18.982;2023-10-13T09:25:36;15.98;;;8.45;;
40076;SDS011;25777;47.824;18.982;2023-10-13T09:30:51;16.13;;;8.05;;
40076;SDS011;25777;47.824;18.982;2023-10-13T09:33:27;19.25;;;8.00;;
40076;SDS011;25777;47.824;18.982;2023-10-13T09:36:14;14.52;;;8.40;;
40076;SDS011;25777;47.824;18.982;2023-10-13T09:38:42;19.80;;;8.15;;
40076;SDS011;25777;47.824;18.982;2023-10-13T09:41:36;14.32;;;7.35;;
40076;SDS011;25777;47.824;18.982;2023-10-13T09:44:03;16.20;;;8.23;;
40076;SDS011;25777;47.824;18.982;2023-10-13T09:46:29;17.90;;;7.60;;
40076;SDS011;25777;47.824;18.982;2023-10-13T09:48:59;13.82;;;7.78;;
40076;SDS011;25777;47.824;18.982;2023-10-13T09:52:00;15.98;;;7.32;;
40076;SDS011;25777;47.824;18.982;2023-10-13T09:54:29;18.05;;;7.85;;
40076;SDS011;25777;47.824;18.982;2023-10-13T09:57:16;13.57;;;7.05;;
40076;SDS011;25777;47.824;18.982;2023-10-13T09:59:50;16.92;;;8.30;;
40076;SDS011;25777;47.824;18.982;2023-10-13T10:02:21;15.85;;;8.13;;
40076;SDS011;25777;47.824;18.982;2023-10-13T10:04:56;13.95;;;8.02;;
40076;SDS011;25777;47.824;18.982;2023-10-13T10:07:40;15.55;;;8.95;;
40076;SDS011;25777;47.824;18.982;2023-10-13T10:10:11;17.40;;;8.10;;
40076;SDS011;25777;47.824;18.982;2023-10-13T10:12:38;15.63;;;7.30;;
40076;SDS011;25777;47.824;18.982;2023-10-13T10:17:59;15.30;;;7.77;;
40076;SDS011;25777;47.824;18.982;2023-10-13T10:20:32;14.02;;;6.65;;
40076;SDS011;25777;47.824;18.982;2023-10-13T10:23:09;15.48;;;7.57;;
40076;SDS011;25777;47.824;18.982;2023-10-13T10:25:47;14.18;;;7.20;;
40076;SDS011;25777;47.824;18.982;2023-10-13T10:28:16;15.85;;;7.65;;
40076;SDS011;25777;47.824;18.982;2023-10-13T10:30:44;13.68;;;7.28;;
40076;SDS011;25777;47.824;18.982;2023-10-13T10:33:10;16.52;;;7.97;;
40076;SDS011;25777;47.824;18.982;2023-10-13T10:35:37;16.20;;;6.82;;
40076;SDS011;25777;47.824;18.982;2023-10-13T10:43:43;14.18;;;7.10;;
40076;SDS011;25777;47.824;18.982;2023-10-13T10:46:09;16.35;;;7.20;;
40076;SDS011;25777;47.824;18.982;2023-10-13T10:48:39;13.05;;;6.57;;
40076;SDS011;25777;47.824;18.982;2023-10-13T10:51:11;18.60;;;7.97;;
40076;SDS011;25777;47.824;18.982;2023-10-13T10:53:53;11.57;;;5.88;;
40076;SDS011;25777;47.824;18.982;2023-10-13T10:56:25;15.10;;;7.05;;
40076;SDS011;25777;47.824;18.982;2023-10-13T10:59:01;15.45;;;6.40;;
40076;SDS011;25777;47.824;18.982;2023-10-13T11:01:30;12.05;;;6.57;;
40076;SDS011;25777;47.824;18.982;2023-10-13T11:04:12;14.98;;;7.28;;
40076;SDS011;25777;47.824;18.982;2023-10-13T11:06:49;14.52;;;6.63;;
40076;SDS011;25777;47.824;18.982;2023-10-13T11:09:26;15.25;;;6.32;;
40076;SDS011;25777;47.824;18.982;2023-10-13T11:12:08;13.25;;;6.40;;
40076;SDS011;25777;47.824;18.982;2023-10-13T11:14:43;13.25;;;6.47;;
40076;SDS011;25777;47.824;18.982;2023-10-13T11:17:19;13.63;;;6.20;;
40076;SDS011;25777;47.824;18.982;2023-10-13T11:20:08;23.73;;;6.65;;
40076;SDS011;25777;47.824;18.982;2023-10-13T11:22:44;11.95;;;5.78;;
40076;SDS011;25777;47.824;18.982;2023-10-13T11:25:19;9.85;;;5.68;;
40076;SDS011;25777;47.824;18.982;2023-10-13T11:27:55;19.27;;;6.72;;
40076;SDS011;25777;47.824;18.982;2023-10-13T11:30:24;9.82;;;5.18;;
40076;SDS011;25777;47.824;18.982;2023-10-13T11:35:32;13.43;;;5.68;;
40076;SDS011;25777;47.824;18.982;2023-10-13T11:38:16;10.98;;;6.25;;
40076;SDS011;25777;47.824;18.982;2023-10-13T11:41:00;15.63;;;6.95;;
40076;SDS011;25777;47.824;18.982;2023-10-13T11:46:08;14.27;;;6.38;;
40076;SDS011;25777;47.824;18.982;2023-10-13T11:48:34;15.93;;;6.07;;
40076;SDS011;25777;47.824;18.982;2023-10-13T11:51:04;12.70;;;6.28;;
40076;SDS011;25777;47.824;18.982;2023-10-13T11:53:42;15.02;;;5.82;;
40076;SDS011;25777;47.824;18.982;2023-10-13T11:56:12;12.57;;;6.47;;
40076;SDS011;25777;47.824;18.982;2023-10-13T11:58:39;15.05;;;7.28;;
40076;SDS011;25777;47.824;18.982;2023-10-13T12:01:06;11.10;;;5.60;;
40076;SDS011;25777;47.824;18.982;2023-10-13T12:03:37;16.70;;;6.88;;
40076;SDS011;25777;47.824;18.982;2023-10-13T12:06:52;14.05;;;6.75;;
40076;SDS011;25777;47.824;18.982;2023-10-13T12:09:37;11.80;;;6.07;;
40076;SDS011;25777;47.824;18.982;2023-10-13T12:12:26;11.88;;;6.63;;
40076;SDS011;25777;47.824;18.982;2023-10-13T12:14:53;17.17;;;6.55;;
40076;SDS011;25777;47.824;18.982;2023-10-13T12:17:24;13.70;;;6.57;;
40076;SDS011;25777;47.824;18.982;2023-10-13T12:19:53;18.52;;;6.93;;
40076;SDS011;25777;47.824;18.982;2023-10-13T12:22:20;17.08;;;6.97;;
40076;SDS011;25777;47.824;18.982;2023-10-13T12:25:04;16.75;;;6.88;;
40076;SDS011;25777;47.824;18.982;2023-10-13T12:30:14;19.08;;;7.57;;
40076;SDS011;25777;47.824;18.982;2023-10-13T12:35:31;11.07;;;6.70;;
40076;SDS011;25777;47.824;18.982;2023-10-13T12:38:02;17.17;;;7.05;;
40076;SDS011;25777;47.824;18.982;2023-10-13T12:40:33;15.07;;;6.65;;
40076;SDS011;25777;47.824;18.982;2023-10-13T12:43:17;15.07;;;6.82;;
40076;SDS011;25777;47.824;18.982;2023-10-13T12:46:15;13.93;;;6.88;;
40076;SDS011;25777;47.824;18.982;2023-10-13T12:49:00;15.20;;;7.07;;
40076;SDS011;25777;47.824;18.982;2023-10-13T12:51:44;16.88;;;6.65;;
40076;SDS011;25777;47.824;18.982;2023-10-13T12:54:16;13.63;;;5.80;;
40076;SDS011;25777;47.824;18.982;2023-10-13T12:56:49;15.70;;;6.85;;
40076;SDS011;25777;47.824;18.982;2023-10-13T12:59:21;11.57;;;5.70;;
40076;SDS011;25777;47.824;18.982;2023-10-13T13:01:52;12.45;;;6.32;;
40076;SDS011;25777;47.824;18.982;2023-10-13T13:04:19;16.65;;;6.88;;
40076;SDS011;25777;47.824;18.982;2023-10-13T13:06:51;16.50;;;6.03;;
40076;SDS011;25777;47.824;18.982;2023-10-13T13:09:18;13.23;;;6.00;;
40076;SDS011;25777;47.824;18.982;2023-10-13T13:11:54;17.27;;;8.82;;
40076;SDS011;25777;47.824;18.982;2023-10-13T13:14:23;12.27;;;6.65;;
40076;SDS011;25777;47.824;18.982;2023-10-13T13:16:57;14.45;;;6.28;;
40076;SDS011;25777;47.824;18.982;2023-10-13T13:19:36;13.80;;;7.10;;
40076;SDS011;25777;47.824;18.982;2023-10-13T13:22:05;11.35;;;6.05;;
40076;SDS011;25777;47.824;18.982;2023-10-13T13:24:41;15.32;;;7.05;;
40076;SDS011;25777;47.824;18.982;2023-10-13T13:27:11;13.02;;;6.30;;
40076;SDS011;25777;47.824;18.982;2023-10-13T13:29:42;12.75;;;7.03;;
40076;SDS011;25777;47.824;18.982;2023-10-13T13:32:11;12.85;;;6.15;;
40076;SDS011;25777;47.824;18.982;2023-10-13T13:34:49;13.70;;;5.72;;
40076;SDS011;25777;47.824;18.982;2023-10-13T13:37:39;9.30;;;6.13;;
40076;SDS011;25777;47.824;18.982;2023-10-13T13:40:05;9.55;;;5.85;;
40076;SDS011;25777;47.824;18.982;2023-10-13T13:42:42;11.75;;;6.18;;
40076;SDS011;25777;47.824;18.982;2023-10-13T13:45:12;14.48;;;7.07;;
40076;SDS011;25777;47.824;18.982;2023-10-13T13:47:52;13.45;;;6.80;;
40076;SDS011;25777;47.824;18.982;2023-10-13T13:50:22;12.80;;;6.40;;
40076;SDS011;25777;47.824;18.982;2023-10-13T13:52:53;17.42;;;12.68;;
40076;SDS011;25777;47.824;18.982;2023-10-13T13:55:23;13.50;;;6.68;;
40076;SDS011;25777;47.824;18.982;2023-10-13T13:57:55;13.07;;;6.20;;
40076;SDS011;25777;47.824;18.982;2023-10-13T14:00:21;12.23;;;5.97;;
40076;SDS011;25777;47.824;18.982;2023-10-13T14:03:06;61.20;;;42.22;;
40076;SDS011;25777;47.824;18.982;2023-10-13T14:05:56;18.90;;;11.13;;
40076;SDS011;25777;47.824;18.982;2023-10-13T14:08:24;19.52;;;9.18;;
40076;SDS011;25777;47.824;18.982;2023-10-13T14:10:53;15.90;;;8.40;;
40076;SDS011;25777;47.824;18.982;2023-10-13T14:13:42;12.75;;;7.70;;
40076;SDS011;25777;47.824;18.982;2023-10-13T14:16:15;15.87;;;7.37;;
40076;SDS011;25777;47.824;18.982;2023-10-13T14:18:48;14.43;;;6.20;;
40076;SDS011;25777;47.824;18.982;2023-10-13T14:21:16;12.55;;;5.57;;
40076;SDS011;25777;47.824;18.982;2023-10-13T14:23:43;16.08;;;6.15;;
40076;SDS011;25777;47.824;18.982;2023-10-13T14:26:16;13.23;;;6.05;;
40076;SDS011;25777;47.824;18.982;2023-10-13T14:28:46;11.45;;;5.60;;
40076;SDS011;25777;47.824;18.982;2023-10-13T14:31:33;11.52;;;5.82;;
40076;SDS011;25777;47.824;18.982;2023-10-13T14:34:03;14.18;;;5.75;;
40076;SDS011;25777;47.824;18.982;2023-10-13T14:36:29;11.82;;;6.45;;
40076;SDS011;25777;47.824;18.982;2023-10-13T14:39:08;14.38;;;8.93;;
40076;SDS011;25777;47.824;18.982;2023-10-13T14:41:35;25.67;;;12.38;;
40076;SDS011;25777;47.824;18.982;2023-10-13T14:44:01;26.27;;;13.32;;
40076;SDS011;25777;47.824;18.982;2023-10-13T14:46:30;219.00;;;90.68;;
40076;SDS011;25777;47.824;18.982;2023-10-13T14:48:56;364.80;;;159.60;;
40076;SDS011;25777;47.824;18.982;2023-10-13T14:51:22;188.43;;;89.90;;
40076;SDS011;25777;47.824;18.982;2023-10-13T14:53:50;179.20;;;85.43;;
40076;SDS011;25777;47.824;18.982;2023-10-13T14:56:21;169.25;;;82.75;;
40076;SDS011;25777;47.824;18.982;2023-10-13T14:58:51;233.07;;;110.45;;
40076;SDS011;25777;47.824;18.982;2023-10-13T15:01:18;207.32;;;107.00;;
40076;SDS011;25777;47.824;18.982;2023-10-13T15:03:49;141.55;;;75.13;;
40076;SDS011;25777;47.824;18.982;2023-10-13T15:06:19;91.80;;;49.30;;
40076;SDS011;25777;47.824;18.982;2023-10-13T15:08:54;50.25;;;28.77;;
40076;SDS011;25777;47.824;18.982;2023-10-13T15:11:23;35.22;;;20.13;;
40076;SDS011;25777;47.824;18.982;2023-10-13T15:14:03;23.40;;;12.02;;
40076;SDS011;25777;47.824;18.982;2023-10-13T15:16:31;21.58;;;12.05;;
40076;SDS011;25777;47.824;18.982;2023-10-13T15:18:58;28.17;;;16.85;;
40076;SDS011;25777;47.824;18.982;2023-10-13T15:21:25;26.17;;;15.82;;
40076;SDS011;25777;47.824;18.982;2023-10-13T15:24:00;61.33;;;40.25;;
40076;SDS011;25777;47.824;18.982;2023-10-13T15:26:38;32.80;;;20.60;;
40076;SDS011;25777;47.824;18.982;2023-10-13T15:29:07;26.45;;;15.68;;
40076;SDS011;25777;47.824;18.982;2023-10-13T15:31:40;23.02;;;14.05;;
40076;SDS011;25777;47.824;18.982;2023-10-13T15:34:12;25.20;;;16.00;;
40076;SDS011;25777;47.824;18.982;2023-10-13T15:36:42;31.40;;;18.73;;
40076;SDS011;25777;47.824;18.982;2023-10-13T15:39:09;33.78;;;19.33;;
40076;SDS011;25777;47.824;18.982;2023-10-13T15:41:36;27.73;;;16.88;;